createdAt,value
2022-08-16T00:02:31.629Z,98106.00
2022-08-16T00:05:00.016Z,98106.84
2022-08-16T00:07:29.310Z,98108.22
2022-08-16T00:09:56.529Z,98108.59
2022-08-16T00:12:24.071Z,98113.19
2022-08-16T00:14:50.627Z,98110.53
2022-08-16T00:17:23.275Z,98107.28
2022-08-16T00:19:53.708Z,98108.91
2022-08-16T00:22:25.083Z,98108.00
2022-08-16T00:24:52.600Z,98117.59
2022-08-16T00:27:20.880Z,98116.13
2022-08-16T00:29:48.172Z,98120.97
2022-08-16T00:32:27.703Z,98118.44
2022-08-16T00:35:00.592Z,98121.97
2022-08-16T00:37:57.412Z,98111.69
2022-08-16T00:40:34.276Z,98127.78
2022-08-16T00:43:05.549Z,98117.00
2022-08-16T00:45:58.218Z,98130.22
2022-08-16T00:48:30.609Z,98124.91
2022-08-16T00:50:58.708Z,98125.25
2022-08-16T00:53:30.896Z,98133.41
2022-08-16T00:55:59.545Z,98127.44
2022-08-16T00:58:34.464Z,98133.69
2022-08-16T01:01:02.273Z,98135.47
2022-08-16T01:03:31.830Z,98141.53
2022-08-16T01:06:32.726Z,98136.22
2022-08-16T01:08:52.053Z,98127.09
2022-08-16T01:11:18.579Z,98130.94
2022-08-16T01:13:46.828Z,98132.28
2022-08-16T01:16:19.794Z,98123.41
2022-08-16T01:19:00.028Z,98133.06
2022-08-16T01:21:33.919Z,98127.84
2022-08-16T01:24:02.401Z,98140.72
2022-08-16T01:26:34.367Z,98144.97
2022-08-16T01:29:05.012Z,98143.31
2022-08-16T01:31:31.662Z,98142.00
2022-08-16T01:34:04.200Z,98133.72
2022-08-16T01:36:34.342Z,98138.84
2022-08-16T01:39:07.998Z,98137.03
2022-08-16T01:41:42.082Z,98136.06
2022-08-16T01:44:10.504Z,98141.94
2022-08-16T01:46:40.838Z,98130.75
2022-08-16T01:49:07.281Z,98137.69
2022-08-16T01:51:33.755Z,98141.22
2022-08-16T01:54:06.303Z,98129.78
2022-08-16T01:56:34.538Z,98135.50
2022-08-16T01:59:02.120Z,98129.84
2022-08-16T02:01:28.847Z,98140.13
2022-08-16T02:03:58.517Z,98137.78
2022-08-16T02:06:38.812Z,98132.31
2022-08-16T02:09:06.120Z,98134.84
2022-08-16T02:11:48.101Z,98127.81
2022-08-16T02:14:21.419Z,98130.44
2022-08-16T02:16:48.392Z,98120.50
2022-08-16T02:19:16.432Z,98123.91
2022-08-16T02:22:08.401Z,98125.56
2022-08-16T02:24:31.928Z,98128.56
2022-08-16T02:26:59.271Z,98121.41
2022-08-16T02:29:32.120Z,98124.97
2022-08-16T02:32:03.453Z,98122.63
2022-08-16T02:34:45.737Z,98122.69
2022-08-16T02:37:16.670Z,98121.38
2022-08-16T02:39:53.750Z,98122.38
2022-08-16T02:42:21.160Z,98115.59
2022-08-16T02:44:47.953Z,98117.06
2022-08-16T02:47:25.516Z,98113.81
2022-08-16T02:49:59.360Z,98113.63
2022-08-16T02:52:39.297Z,98112.34
2022-08-16T02:55:10.400Z,98118.38
2022-08-16T02:57:37.436Z,98117.22
2022-08-16T03:00:34.504Z,98117.22
2022-08-16T03:02:56.977Z,98113.88
2022-08-16T03:05:24.633Z,98103.84
2022-08-16T03:07:51.135Z,98111.03
2022-08-16T03:10:17.705Z,98112.41
2022-08-16T03:12:56.080Z,98108.84
2022-08-16T03:15:23.197Z,98114.44
2022-08-16T03:17:53.753Z,98109.72
2022-08-16T03:20:20.419Z,98113.69
2022-08-16T03:22:59.141Z,98112.78
2022-08-16T03:25:25.552Z,98097.97
2022-08-16T03:28:08.307Z,98104.31
2022-08-16T03:30:35.974Z,98101.25
2022-08-16T03:33:03.736Z,98104.78
2022-08-16T03:35:33.703Z,98107.47
2022-08-16T03:38:03.923Z,98102.56
2022-08-16T03:40:34.521Z,98105.25
2022-08-16T03:43:19.918Z,98101.25
2022-08-16T03:45:47.944Z,98101.63
2022-08-16T03:48:14.954Z,98102.78
2022-08-16T03:50:41.533Z,98102.50
2022-08-16T03:53:26.629Z,98100.19
2022-08-16T03:56:05.249Z,98101.06
2022-08-16T03:58:33.132Z,98104.59
2022-08-16T04:00:59.861Z,98102.78
2022-08-16T04:03:27.312Z,98106.28
2022-08-16T04:05:56.381Z,98099.06
2022-08-16T04:08:24.490Z,98103.03
2022-08-16T04:10:52.080Z,98104.44
2022-08-16T04:13:20.290Z,98094.97
2022-08-16T04:15:47.814Z,98091.13
2022-08-16T04:18:19.353Z,98094.88
2022-08-16T04:20:45.897Z,98097.00
2022-08-16T04:23:13.218Z,98100.25
2022-08-16T04:25:40.573Z,98098.84
2022-08-16T04:28:54.319Z,98102.50
2022-08-16T04:30:53.834Z,98105.19
2022-08-16T04:33:27.146Z,98112.06
2022-08-16T04:35:55.626Z,98108.25
2022-08-16T04:38:23.152Z,98111.44
2022-08-16T04:40:50.180Z,98117.13
2022-08-16T04:43:17.393Z,98114.19
2022-08-16T04:45:44.267Z,98118.47
2022-08-16T04:48:10.579Z,98121.53
2022-08-16T04:50:38.687Z,98110.50
2022-08-16T04:53:09.833Z,98116.59
2022-08-16T04:55:38.931Z,98110.94
2022-08-16T04:58:44.032Z,98108.94
2022-08-16T05:00:56.755Z,98114.13
2022-08-16T05:03:23.766Z,98115.00
2022-08-16T05:05:58.948Z,98120.13
2022-08-16T05:08:30.990Z,98117.25
2022-08-16T05:11:03.522Z,98118.59
2022-08-16T05:13:40.004Z,98114.94
2022-08-16T05:16:08.145Z,98119.09
2022-08-16T05:18:38.185Z,98121.59
2022-08-16T05:21:09.615Z,98129.94
2022-08-16T05:23:37.767Z,98127.03
2022-08-16T05:26:04.636Z,98123.22
2022-08-16T05:28:37.519Z,98129.41
2022-08-16T05:31:06.823Z,98119.63
2022-08-16T05:33:33.554Z,98125.22
2022-08-16T05:36:03.892Z,98130.28
2022-08-16T05:38:39.922Z,98138.19
2022-08-16T05:41:09.437Z,98136.97
2022-08-16T05:43:43.438Z,98137.81
2022-08-16T05:46:29.760Z,98135.63
2022-08-16T05:49:03.775Z,98127.03
2022-08-16T05:51:38.258Z,98129.66
2022-08-16T05:54:07.560Z,98137.31
2022-08-16T05:56:34.148Z,98135.91
2022-08-16T05:59:04.040Z,98130.00
2022-08-16T06:01:33.151Z,98131.78
2022-08-16T06:04:13.477Z,98131.22
2022-08-16T06:06:56.215Z,98126.28
2022-08-16T06:09:24.055Z,98141.34
2022-08-16T06:11:50.533Z,98131.22
2022-08-16T06:14:17.375Z,98136.84
2022-08-16T06:16:44.087Z,98137.47
2022-08-16T06:19:10.554Z,98135.78
2022-08-16T06:21:37.719Z,98140.03
2022-08-16T06:24:54.847Z,98128.78
2022-08-16T06:26:57.875Z,98128.56
2022-08-16T06:29:24.784Z,98123.63
2022-08-16T06:31:55.124Z,98129.91
2022-08-16T06:34:55.337Z,98110.50
2022-08-16T06:37:09.365Z,98120.00
2022-08-16T06:39:49.220Z,98117.84
2022-08-16T06:42:18.308Z,98126.84
2022-08-16T06:44:46.594Z,98123.59
2022-08-16T06:47:16.916Z,98121.44
2022-08-16T06:49:53.830Z,98121.72
2022-08-16T06:52:57.585Z,98129.81
2022-08-16T06:55:13.118Z,98123.03
2022-08-16T06:57:41.364Z,98122.72
2022-08-16T07:00:13.121Z,98135.47
2022-08-16T07:02:51.320Z,98136.59
2022-08-16T07:05:18.945Z,98133.56
2022-08-16T07:07:46.608Z,98138.44
2022-08-16T07:10:17.482Z,98136.44
2022-08-16T07:12:47.407Z,98132.16
2022-08-16T07:15:29.551Z,98141.56
2022-08-16T07:17:55.992Z,98134.16
2022-08-16T07:20:35.117Z,98140.16
2022-08-16T07:23:03.068Z,98145.53
2022-08-16T07:25:41.553Z,98137.72
2022-08-16T07:28:12.025Z,98129.59
2022-08-16T07:30:47.114Z,98130.53
2022-08-16T07:33:15.843Z,98127.53
2022-08-16T07:35:44.335Z,98120.47
2022-08-16T07:38:17.258Z,98112.41
2022-08-16T07:41:00.385Z,98122.72
2022-08-16T07:43:28.946Z,98114.13
2022-08-16T07:45:58.530Z,98121.75
2022-08-16T07:48:25.782Z,98125.50
2022-08-16T07:50:57.184Z,98128.66
2022-08-16T07:53:29.078Z,98135.63
2022-08-16T07:55:55.887Z,98135.81
2022-08-16T07:58:34.141Z,98133.09
2022-08-16T08:01:02.043Z,98140.25
2022-08-16T08:03:39.248Z,98137.88
2022-08-16T08:06:10.258Z,98134.88
2022-08-16T08:08:50.614Z,98134.16
2022-08-16T08:11:19.163Z,98132.44
2022-08-16T08:13:45.672Z,98131.84
2022-08-16T08:16:18.518Z,98143.13
2022-08-16T08:18:50.526Z,98139.44
2022-08-16T08:21:26.281Z,98144.38
2022-08-16T08:23:54.765Z,98145.91
2022-08-16T08:26:21.164Z,98154.78
2022-08-16T08:28:48.281Z,98154.53
2022-08-16T08:31:17.178Z,98152.47
2022-08-16T08:33:47.373Z,98144.22
2022-08-16T08:36:23.919Z,98151.34
2022-08-16T08:38:59.714Z,98156.88
2022-08-16T08:41:28.515Z,98149.19
2022-08-16T08:43:56.129Z,98153.75
2022-08-16T08:46:23.707Z,98156.47
2022-08-16T08:48:59.791Z,98153.22
2022-08-16T08:51:31.726Z,98160.91
2022-08-16T08:54:02.622Z,98162.34
2022-08-16T08:56:34.772Z,98162.63
2022-08-16T08:59:06.077Z,98172.34
2022-08-16T09:01:56.368Z,98172.25
2022-08-16T09:04:25.242Z,98173.66
2022-08-16T09:06:51.798Z,98175.50
2022-08-16T09:09:18.813Z,98174.28
2022-08-16T09:11:50.939Z,98175.44
2022-08-16T09:14:24.037Z,98165.41
2022-08-16T09:17:03.797Z,98174.06
2022-08-16T09:19:40.889Z,98169.91
2022-08-16T09:22:08.032Z,98161.69
2022-08-16T09:24:53.145Z,98161.75
2022-08-16T09:27:21.844Z,98155.94
2022-08-16T09:29:59.856Z,98165.25
2022-08-16T09:32:30.288Z,98158.38
2022-08-16T09:34:58.272Z,98163.84
2022-08-16T09:37:29.526Z,98162.16
2022-08-16T09:39:57.325Z,98159.97
2022-08-16T09:42:27.143Z,98160.16
2022-08-16T09:45:12.927Z,98156.03
2022-08-16T09:47:56.766Z,98166.16
2022-08-16T09:50:25.148Z,98161.78
2022-08-16T09:52:51.643Z,98169.50
2022-08-16T09:55:18.117Z,98160.78
2022-08-16T09:57:52.721Z,98163.19
2022-08-16T10:00:44.441Z,98159.22
2022-08-16T10:03:18.835Z,98156.16
2022-08-16T10:05:45.629Z,98156.13
2022-08-16T10:08:26.675Z,98153.63
2022-08-16T10:10:53.683Z,98161.28
2022-08-16T10:13:20.259Z,98161.00
2022-08-16T10:15:54.919Z,98154.88
2022-08-16T10:18:53.984Z,98157.59
2022-08-16T10:21:08.952Z,98162.06
2022-08-16T10:23:35.429Z,98162.44
2022-08-16T10:27:20.325Z,98158.78
2022-08-16T10:28:51.088Z,98148.31
2022-08-16T10:31:45.664Z,98159.53
2022-08-16T10:34:04.157Z,98150.28
2022-08-16T10:36:38.982Z,98161.69
2022-08-16T10:39:08.507Z,98159.91
2022-08-16T10:41:35.146Z,98166.13
2022-08-16T10:44:02.461Z,98162.59
2022-08-16T10:46:39.126Z,98162.56
2022-08-16T10:49:07.581Z,98168.97
2022-08-16T10:52:00.760Z,98164.13
2022-08-16T10:54:29.320Z,98170.97
2022-08-16T10:56:57.202Z,98167.66
2022-08-16T10:59:32.567Z,98162.16
2022-08-16T11:07:53.461Z,98167.13
2022-08-16T11:11:04.583Z,98175.06
2022-08-16T11:15:55.751Z,98167.41
2022-08-16T11:19:02.957Z,98165.22
2022-08-16T11:21:09.910Z,98162.38
2022-08-16T11:23:57.527Z,98166.41
2022-08-16T11:26:24.874Z,98164.66
2022-08-16T11:31:37.932Z,98164.28
2022-08-16T11:34:04.616Z,98163.69
2022-08-16T11:36:31.186Z,98161.91
2022-08-16T11:38:59.075Z,98155.63
2022-08-16T11:41:29.278Z,98144.06
2022-08-16T11:43:57.390Z,98152.34
2022-08-16T11:46:44.117Z,98147.91
2022-08-16T11:49:13.650Z,98153.72
2022-08-16T11:51:40.774Z,98163.09
2022-08-16T11:54:09.080Z,98147.50
2022-08-16T11:56:52.668Z,98144.78
2022-08-16T11:59:24.431Z,98159.28
2022-08-16T12:01:59.532Z,98150.94
2022-08-16T12:04:26.791Z,98145.75
2022-08-16T12:06:53.792Z,98152.16
2022-08-16T12:09:21.223Z,98142.78
2022-08-16T12:11:52.393Z,98149.16
2022-08-16T12:14:20.349Z,98148.97
2022-08-16T12:16:55.809Z,98149.66
2022-08-16T12:19:33.644Z,98149.66
2022-08-16T12:22:01.803Z,98134.38
2022-08-16T12:24:33.065Z,98137.28
2022-08-16T12:27:00.387Z,98135.88
2022-08-16T12:29:29.469Z,98128.66
2022-08-16T12:32:01.301Z,98132.31
2022-08-16T12:34:48.013Z,98137.28
2022-08-16T12:37:20.476Z,98125.84
2022-08-16T12:39:50.745Z,98127.56
2022-08-16T12:42:17.974Z,98128.66
2022-08-16T12:44:45.738Z,98121.94
2022-08-16T12:47:12.301Z,98114.34
2022-08-16T12:49:42.038Z,98113.97
2022-08-16T12:52:09.212Z,98116.09
2022-08-16T12:54:35.549Z,98113.06
2022-08-16T12:57:03.613Z,98116.31
2022-08-16T12:59:31.275Z,98113.16
2022-08-16T13:01:58.403Z,98110.13
2022-08-16T13:04:26.484Z,98095.63
2022-08-16T13:06:53.330Z,98097.88
2022-08-16T13:09:20.302Z,98096.66
2022-08-16T13:11:57.801Z,98101.28
2022-08-16T13:14:32.104Z,98094.91
2022-08-16T13:17:00.971Z,98094.31
2022-08-16T13:19:44.213Z,98087.44
2022-08-16T13:22:19.715Z,98095.25
2022-08-16T13:24:46.792Z,98093.03
2022-08-16T13:27:13.302Z,98096.06
2022-08-16T13:29:44.061Z,98091.91
2022-08-16T13:32:10.876Z,98094.22
2022-08-16T13:34:57.416Z,98090.44
2022-08-16T13:37:24.303Z,98087.91
2022-08-16T13:39:52.474Z,98089.97
2022-08-16T13:42:27.857Z,98087.56
2022-08-16T13:44:56.479Z,98082.47
2022-08-16T13:47:25.292Z,98086.53
2022-08-16T13:49:56.829Z,98083.19
2022-08-16T13:52:23.854Z,98079.06
2022-08-16T13:54:51.535Z,98076.56
2022-08-16T13:57:19.262Z,98083.03
2022-08-16T13:59:46.907Z,98078.22
2022-08-16T14:02:16.698Z,98068.13
2022-08-16T14:04:44.490Z,98073.69
2022-08-16T14:07:19.847Z,98072.81
2022-08-16T14:09:57.104Z,98077.53
2022-08-16T14:12:27.655Z,98067.53
2022-08-16T14:14:57.280Z,98063.13
2022-08-16T14:17:24.170Z,98067.69
2022-08-16T14:19:50.533Z,98062.56
2022-08-16T14:22:31.112Z,98061.78
2022-08-16T14:25:03.238Z,98048.81
2022-08-16T14:27:30.368Z,98055.72
2022-08-16T14:29:57.850Z,98063.97
2022-08-16T14:32:32.714Z,98051.94
2022-08-16T14:35:01.391Z,98052.88
2022-08-16T14:37:27.653Z,98053.00
2022-08-16T14:39:54.319Z,98064.84
2022-08-16T14:42:21.978Z,98049.22
2022-08-16T14:44:49.208Z,98054.88
2022-08-16T14:47:16.997Z,98048.25
2022-08-16T14:49:44.895Z,98051.88
2022-08-16T14:52:13.066Z,98044.22
2022-08-16T14:54:42.853Z,98052.44
2022-08-16T14:57:12.346Z,98053.22
2022-08-16T14:59:41.258Z,98051.00
2022-08-16T15:02:17.290Z,98059.75
2022-08-16T15:05:03.208Z,98053.91
2022-08-16T15:07:34.488Z,98049.22
2022-08-16T15:10:03.551Z,98048.09
2022-08-16T15:12:33.736Z,98045.53
2022-08-16T15:15:01.444Z,98048.06
2022-08-16T15:17:37.221Z,98051.00
2022-08-16T15:20:04.535Z,98045.47
2022-08-16T15:22:36.559Z,98045.59
2022-08-16T15:25:05.582Z,98038.50
2022-08-16T15:27:33.670Z,98044.72
2022-08-16T15:30:48.191Z,98044.84
2022-08-16T15:32:56.602Z,98048.34
2022-08-16T15:35:23.093Z,98050.50
2022-08-16T15:37:54.660Z,98045.81
2022-08-16T15:40:31.947Z,98051.44
2022-08-16T15:42:59.097Z,98046.63
2022-08-16T15:45:28.046Z,98052.25
2022-08-16T15:47:56.751Z,98045.63
2022-08-16T15:50:23.408Z,98045.97
2022-08-16T15:52:49.875Z,98039.53
2022-08-16T15:55:34.661Z,98045.28
2022-08-16T15:58:01.580Z,98040.34
2022-08-16T16:00:48.295Z,98039.81
2022-08-16T16:03:16.162Z,98036.31
2022-08-16T16:05:44.507Z,98038.50
2022-08-16T16:08:16.052Z,98023.50
2022-08-16T16:10:54.583Z,98021.91
2022-08-16T16:13:21.572Z,98031.94
2022-08-16T16:15:54.608Z,98028.06
2022-08-16T16:18:21.689Z,98031.69
2022-08-16T16:20:49.980Z,98024.66
2022-08-16T16:23:21.130Z,98024.16
2022-08-16T16:25:50.747Z,98021.41
2022-08-16T16:28:51.141Z,98028.25
2022-08-16T16:31:08.310Z,98028.81
2022-08-16T16:33:36.849Z,98015.66
2022-08-16T16:36:06.856Z,98029.47
2022-08-16T16:38:39.222Z,98022.38
2022-08-16T16:41:10.126Z,98023.44
2022-08-16T16:43:41.058Z,98019.09
2022-08-16T16:46:40.600Z,98008.97
2022-08-16T16:49:00.125Z,98017.97
2022-08-16T16:51:27.860Z,98018.66
2022-08-16T16:53:57.309Z,98019.56
2022-08-16T16:56:30.111Z,98018.53
2022-08-16T16:59:03.294Z,98020.25
2022-08-16T17:01:59.145Z,98012.47
2022-08-16T17:04:31.755Z,98017.53
2022-08-16T17:06:59.924Z,98013.81
2022-08-16T17:09:27.059Z,98016.56
2022-08-16T17:14:42.843Z,98023.78
2022-08-16T17:17:10.135Z,98026.66
2022-08-16T17:19:41.087Z,98021.03
2022-08-16T17:22:14.039Z,98018.97
2022-08-16T17:24:45.084Z,98016.72
2022-08-16T17:27:17.952Z,98013.91
2022-08-16T17:29:46.199Z,98015.88
2022-08-16T17:32:34.208Z,98020.75
2022-08-16T17:35:21.505Z,98020.97
2022-08-16T17:37:51.435Z,98028.25
2022-08-16T17:39:26.227Z,98018.78
2022-08-16T17:40:40.243Z,98028.47
2022-08-16T17:43:09.270Z,98021.88
2022-08-16T17:45:35.618Z,98014.53
2022-08-16T17:48:02.375Z,98022.50
2022-08-16T17:50:30.247Z,98016.56
2022-08-16T17:52:57.142Z,98017.75
2022-08-16T17:55:35.071Z,98018.41
2022-08-16T17:58:01.930Z,98020.53
2022-08-16T18:00:47.188Z,98019.09
2022-08-16T18:04:08.580Z,98024.56
2022-08-16T18:06:09.503Z,98023.16
2022-08-16T18:08:35.859Z,98020.75
2022-08-16T18:11:07.941Z,98017.72
2022-08-16T18:13:34.550Z,98029.53
2022-08-16T18:16:03.632Z,98024.84
2022-08-16T18:18:30.140Z,98021.13
2022-08-16T18:20:56.637Z,98027.38
2022-08-16T18:23:27.624Z,98021.38
2022-08-16T18:26:00.509Z,98028.69
2022-08-16T18:28:28.260Z,98028.03
2022-08-16T18:31:00.294Z,98024.41
2022-08-16T18:33:28.922Z,98025.50
2022-08-16T18:35:57.823Z,98027.19
2022-08-16T18:38:24.702Z,98026.94
2022-08-16T18:40:53.013Z,98024.47
2022-08-16T18:43:21.234Z,98024.25
2022-08-16T18:46:07.677Z,98014.16
2022-08-16T18:48:35.495Z,98018.28
2022-08-16T18:51:05.823Z,98024.16
2022-08-16T18:53:34.790Z,98016.88
2022-08-16T18:56:02.125Z,98015.50
2022-08-16T18:58:29.565Z,98023.41
2022-08-16T19:00:57.442Z,98027.47
2022-08-16T19:03:25.849Z,98022.53
2022-08-16T19:06:02.360Z,98020.41
2022-08-16T19:08:30.293Z,98026.44
2022-08-16T19:10:56.868Z,98028.72
2022-08-16T19:13:24.787Z,98035.19
2022-08-16T19:15:55.442Z,98032.94
2022-08-16T19:18:22.200Z,98031.94
2022-08-16T19:20:49.901Z,98028.31
2022-08-16T19:23:20.782Z,98035.97
2022-08-16T19:25:52.745Z,98045.19
2022-08-16T19:28:51.520Z,98046.81
2022-08-16T19:31:16.105Z,98042.84
2022-08-16T19:33:53.226Z,98051.50
2022-08-16T19:36:31.639Z,98066.72
2022-08-16T19:39:05.950Z,98068.63
2022-08-16T19:41:33.784Z,98073.63
2022-08-16T19:44:00.147Z,98071.06
2022-08-16T19:46:26.533Z,98076.00
2022-08-16T19:48:53.047Z,98075.56
2022-08-16T19:51:19.684Z,98079.53
2022-08-16T19:53:46.177Z,98068.72
2022-08-16T19:56:12.558Z,98074.44
2022-08-16T19:58:56.078Z,98066.00
2022-08-16T20:01:27.002Z,98056.59
2022-08-16T20:03:53.343Z,98053.69
2022-08-16T20:06:37.854Z,98066.25
2022-08-16T20:09:05.679Z,98074.94
2022-08-16T20:11:32.663Z,98074.19
2022-08-16T20:13:59.021Z,98085.97
2022-08-16T20:16:25.769Z,98082.78
2022-08-16T20:18:52.187Z,98087.69
2022-08-16T20:21:18.726Z,98079.84
2022-08-16T20:23:45.086Z,98080.50
2022-08-16T20:26:11.616Z,98074.53
2022-08-16T20:28:44.062Z,98084.13
2022-08-16T20:31:19.891Z,98078.19
2022-08-16T20:33:46.746Z,98087.09
2022-08-16T20:36:16.296Z,98077.13
2022-08-16T20:38:43.482Z,98093.13
2022-08-16T20:41:09.816Z,98086.41
2022-08-16T20:43:36.335Z,98090.75
2022-08-16T20:46:04.443Z,98093.78
2022-08-16T20:48:30.984Z,98088.09
2022-08-16T20:50:58.635Z,98083.56
2022-08-16T20:53:25.285Z,98087.59
2022-08-16T20:55:51.822Z,98085.75
2022-08-16T20:58:18.244Z,98086.59
2022-08-16T21:00:44.673Z,98092.88
2022-08-16T21:03:13.163Z,98089.63
2022-08-16T21:05:39.915Z,98097.00
2022-08-16T21:08:50.843Z,98094.00
2022-08-16T21:10:53.062Z,98095.94
2022-08-16T21:13:19.930Z,98100.56
2022-08-16T21:15:48.777Z,98098.09
2022-08-16T21:18:15.176Z,98094.06
2022-08-16T21:20:41.743Z,98098.13
2022-08-16T21:23:08.795Z,98097.88
2022-08-16T21:25:35.917Z,98093.50
2022-08-16T21:28:41.183Z,98108.97
2022-08-16T21:30:51.398Z,98107.88
2022-08-16T21:33:18.921Z,98110.31
2022-08-16T21:35:46.229Z,98102.47
2022-08-16T21:38:28.797Z,98106.25
2022-08-16T21:40:56.333Z,98107.34
2022-08-16T21:43:22.776Z,98110.06
2022-08-16T21:45:51.976Z,98112.75
2022-08-16T21:48:35.092Z,98112.22
2022-08-16T21:51:06.922Z,98120.63
2022-08-16T21:53:35.376Z,98119.78
2022-08-16T21:56:03.354Z,98121.13
2022-08-16T21:58:30.473Z,98124.94
2022-08-16T22:00:57.072Z,98126.00
2022-08-16T22:03:23.580Z,98117.91
2022-08-16T22:05:59.998Z,98118.44
2022-08-16T22:08:39.487Z,98123.78
2022-08-16T22:11:16.731Z,98124.06
2022-08-16T22:13:43.329Z,98121.38
2022-08-16T22:16:17.982Z,98125.16
2022-08-16T22:18:52.111Z,98130.81
2022-08-16T22:21:22.237Z,98135.69
2022-08-16T22:23:55.197Z,98133.50
2022-08-16T22:26:30.756Z,98134.28
2022-08-16T22:29:00.465Z,98136.47
2022-08-16T22:31:27.378Z,98141.06
2022-08-16T22:33:54.318Z,98135.97
2022-08-16T22:36:20.641Z,98138.09
2022-08-16T22:38:56.228Z,98140.50
2022-08-16T22:41:25.515Z,98145.34
2022-08-16T22:43:55.442Z,98149.38
2022-08-16T22:46:22.371Z,98142.63
2022-08-16T22:48:49.274Z,98153.97
2022-08-16T22:51:17.133Z,98147.97
2022-08-16T22:53:43.750Z,98146.91
2022-08-16T22:56:10.081Z,98154.44
2022-08-16T22:58:37.319Z,98150.84
2022-08-16T23:01:05.146Z,98146.25
2022-08-16T23:03:32.949Z,98146.25
2022-08-16T23:05:59.852Z,98136.25
2022-08-16T23:08:33.633Z,98143.78
2022-08-16T23:11:12.770Z,98137.31
2022-08-16T23:13:53.265Z,98138.09
2022-08-16T23:16:32.438Z,98138.00
2022-08-16T23:19:01.148Z,98128.31
2022-08-16T23:21:27.953Z,98121.81
2022-08-16T23:23:54.345Z,98118.06
2022-08-16T23:26:44.636Z,98120.75
2022-08-16T23:29:07.192Z,98118.72
2022-08-16T23:31:46.378Z,98120.75
2022-08-16T23:34:12.889Z,98120.97
2022-08-16T23:36:39.980Z,98119.50
2022-08-16T23:39:06.611Z,98116.78
2022-08-16T23:41:33.119Z,98124.88
2022-08-16T23:43:59.641Z,98126.41
2022-08-16T23:46:26.466Z,98121.31
2022-08-16T23:50:00.717Z,98115.63
2022-08-16T23:51:39.353Z,98115.63
2022-08-16T23:54:05.966Z,98098.13
2022-08-16T23:56:40.180Z,98101.38
2022-08-16T23:59:07.294Z,98096.50
